Time;durP1;ratioP1;P1;durP2;ratioP2;P2;SDS_P1;SDS_P2;PMS_P1;PMS_P2;Temp;Humidity;BMP_temperature;BMP_pressure;BME280_temperature;BME280_humidity;BME280_pressure;Samples;Min_cycle;Max_cycle;Signal;HPM_P1;HPM_P2
2023/12/20 00:00:55;;;;;;;1.98;1.83;;;5.30;99.90;;;;;;5125364;27;20142;-81
2023/12/20 00:03:20;;;;;;;0.60;0.60;;;5.30;99.90;;;;;;5125906;27;20503;-79
2023/12/20 00:05:47;;;;;;;0.50;0.50;;;5.20;99.90;;;;;;5127107;27;20595;-82
2023/12/20 00:08:13;;;;;;;0.60;0.60;;;5.30;99.90;;;;;;5134410;27;20133;-81
2023/12/20 00:10:39;;;;;;;0.50;0.50;;;5.30;99.90;;;;;;5131516;27;20130;-78
2023/12/20 00:13:04;;;;;;;1.05;0.77;;;5.40;99.90;;;;;;5095544;27;20046;-77
2023/12/20 00:15:30;;;;;;;0.50;0.50;;;5.40;99.90;;;;;;5129501;27;20444;-80
2023/12/20 00:17:56;;;;;;;0.50;0.50;;;5.40;99.90;;;;;;5130581;27;20043;-77
2023/12/20 00:20:21;;;;;;;0.50;0.50;;;5.40;99.90;;;;;;5128511;27;20043;-80
2023/12/20 00:22:47;;;;;;;0.60;0.60;;;5.40;99.90;;;;;;5112995;27;21575;-80
2023/12/20 00:25:13;;;;;;;0.63;0.63;;;5.60;99.90;;;;;;5130130;27;20507;-77
2023/12/20 00:27:38;;;;;;;0.45;0.45;;;5.50;99.90;;;;;;5099779;27;20035;-80
2023/12/20 00:30:04;;;;;;;0.60;0.60;;;5.50;99.90;;;;;;5129439;27;20776;-79
2023/12/20 00:32:30;;;;;;;0.50;0.50;;;5.40;99.90;;;;;;5135152;27;20045;-78
2023/12/20 00:34:56;;;;;;;0.80;0.80;;;5.40;99.90;;;;;;5130119;27;20125;-79
2023/12/20 00:37:21;;;;;;;0.50;0.50;;;5.40;99.90;;;;;;5130837;27;20479;-76
2023/12/20 00:39:48;;;;;;;0.50;0.50;;;5.40;99.90;;;;;;5140302;27;20118;-78
2023/12/20 00:42:13;;;;;;;0.40;0.40;;;5.40;99.90;;;;;;5113461;27;20126;-77
2023/12/20 00:44:39;;;;;;;0.55;0.55;;;5.40;99.90;;;;;;5131086;27;20122;-76
2023/12/20 00:47:06;;;;;;;0.50;0.50;;;5.50;99.90;;;;;;5129658;27;20125;-81
2023/12/20 00:49:32;;;;;;;0.60;0.60;;;5.50;99.90;;;;;;5131122;27;20384;-76
2023/12/20 00:51:58;;;;;;;0.60;0.60;;;5.60;99.90;;;;;;5131968;27;20043;-80
2023/12/20 00:54:26;;;;;;;0.50;0.50;;;5.70;99.90;;;;;;5130705;27;20429;-77
2023/12/20 00:56:52;;;;;;;0.60;0.60;;;5.70;99.90;;;;;;5112269;27;20039;-78
2023/12/20 00:59:18;;;;;;;0.60;0.60;;;5.70;99.90;;;;;;5130359;27;20392;-76
2023/12/20 01:01:44;;;;;;;0.55;0.55;;;4.50;99.90;;;;;;5132762;27;20034;-78
2023/12/20 01:04:10;;;;;;;0.50;0.50;;;5.60;99.90;;;;;;5135221;27;20541;-78
2023/12/20 01:06:35;;;;;;;0.55;0.55;;;5.60;99.90;;;;;;5130838;27;20071;-76
2023/12/20 01:09:01;;;;;;;0.50;0.50;;;5.50;99.90;;;;;;5097756;27;20043;-78
2023/12/20 01:11:27;;;;;;;0.47;0.47;;;5.50;99.90;;;;;;5096222;27;20043;-75
2023/12/20 01:13:52;;;;;;;0.60;0.60;;;5.50;99.90;;;;;;5130037;27;20636;-78
2023/12/20 01:16:18;;;;;;;0.60;0.60;;;5.60;99.90;;;;;;5133377;27;20453;-78
2023/12/20 01:18:43;;;;;;;0.50;0.50;;;5.60;99.90;;;;;;5128238;27;20122;-80
2023/12/20 01:21:10;;;;;;;0.50;0.50;;;5.70;99.90;;;;;;5130069;27;20039;-79
2023/12/20 01:23:36;;;;;;;0.50;0.50;;;5.60;99.90;;;;;;5115626;27;20050;-78
2023/12/20 01:26:02;;;;;;;0.65;0.65;;;5.70;99.90;;;;;;5113340;27;20042;-77
2023/12/20 01:28:28;;;;;;;0.60;0.60;;;5.70;99.90;;;;;;5112441;27;20070;-78
2023/12/20 01:30:54;;;;;;;0.40;0.40;;;5.70;99.90;;;;;;5129262;27;20120;-77
2023/12/20 01:33:19;;;;;;;0.80;0.80;;;5.70;99.90;;;;;;5130609;27;20045;-77
2023/12/20 01:35:45;;;;;;;0.60;0.60;;;7.60;99.90;;;;;;5133139;27;20038;-75
2023/12/20 01:38:11;;;;;;;0.50;0.50;;;5.90;99.90;;;;;;5129465;27;20077;-77
2023/12/20 01:40:36;;;;;;;3.53;0.95;;;5.90;99.90;;;;;;5133888;27;20039;-79
2023/12/20 01:43:08;;;;;;;0.50;0.50;;;5.90;99.90;;;;;;5132059;27;20062;-77
2023/12/20 01:45:34;;;;;;;6.43;2.90;;;6.00;99.90;;;;;;5131839;27;20046;-77
2023/12/20 01:48:00;;;;;;;;;;;5.90;99.90;;;;;;5099671;27;20039;-78
2023/12/20 01:50:26;;;;;;;0.50;0.50;;;5.80;99.90;;;;;;5130081;27;19923;-81
2023/12/20 01:52:57;;;;;;;0.80;0.80;;;5.80;99.90;;;;;;5130180;27;20049;-75
2023/12/20 01:55:23;;;;;;;0.55;0.55;;;5.80;99.90;;;;;;5129506;27;20113;-77
2023/12/20 01:57:49;;;;;;;;;;;5.90;99.90;;;;;;5129430;27;20152;-78
2023/12/20 02:00:15;;;;;;;0.52;0.52;;;6.00;99.90;;;;;;5128206;27;19920;-77
2023/12/20 02:02:41;;;;;;;0.50;0.50;;;5.70;99.90;;;;;;5129556;27;20043;-78
2023/12/20 02:05:07;;;;;;;0.50;0.50;;;6.20;99.90;;;;;;5128773;27;20476;-79
2023/12/20 02:07:35;;;;;;;0.60;0.60;;;5.70;99.90;;;;;;5128573;27;20035;-80
2023/12/20 02:10:02;;;;;;;0.50;0.50;;;5.70;99.90;;;;;;5128700;27;20393;-79
2023/12/20 02:12:27;;;;;;;0.40;0.40;;;5.70;99.90;;;;;;5132726;27;20356;-76
2023/12/20 02:14:54;;;;;;;0.60;0.60;;;5.70;99.90;;;;;;5112772;27;20038;-81
2023/12/20 02:17:20;;;;;;;0.50;0.50;;;5.60;99.90;;;;;;5112684;27;20039;-75
2023/12/20 02:19:45;;;;;;;;;;;5.80;99.90;;;;;;5131055;27;20051;-77
2023/12/20 02:22:12;;;;;;;0.60;0.60;;;5.60;99.90;;;;;;5131873;27;19926;-78
2023/12/20 02:24:38;;;;;;;0.40;0.40;;;5.50;99.90;;;;;;5130178;27;20463;-76
2023/12/20 02:27:06;;;;;;;0.60;0.60;;;5.50;99.90;;;;;;5127982;27;20043;-78
2023/12/20 02:29:33;;;;;;;0.57;0.57;;;5.80;99.90;;;;;;5129249;27;20031;-76
2023/12/20 02:31:59;;;;;;;0.40;0.40;;;5.60;99.90;;;;;;5128143;27;20058;-77
2023/12/20 02:34:24;;;;;;;0.50;0.50;;;5.60;99.90;;;;;;5111046;27;20039;-76
2023/12/20 02:36:50;;;;;;;0.73;0.73;;;5.60;99.90;;;;;;5130003;27;20403;-79
2023/12/20 02:39:16;;;;;;;0.38;0.38;;;5.50;99.90;;;;;;5130375;27;20031;-78
2023/12/20 02:41:42;;;;;;;0.60;0.60;;;5.60;99.90;;;;;;5114757;27;20107;-76
2023/12/20 02:44:08;;;;;;;0.50;0.50;;;5.60;99.90;;;;;;5129738;27;20051;-78
2023/12/20 02:46:33;;;;;;;0.43;0.43;;;5.70;99.90;;;;;;5132093;27;20039;-76
2023/12/20 02:48:59;;;;;;;0.70;0.70;;;5.90;99.90;;;;;;5131253;27;20042;-76
2023/12/20 02:51:24;;;;;;;0.50;0.50;;;5.80;99.90;;;;;;5128464;27;20039;-80
2023/12/20 02:53:50;;;;;;;0.60;0.60;;;5.80;99.90;;;;;;5112596;27;20107;-78
2023/12/20 02:56:16;;;;;;;0.50;0.50;;;5.80;99.90;;;;;;5096275;27;20042;-78
2023/12/20 02:58:41;;;;;;;0.80;0.80;;;5.80;99.90;;;;;;5130317;27;20042;-78
2023/12/20 03:01:07;;;;;;;0.40;0.40;;;5.70;99.90;;;;;;5130227;27;20039;-78
2023/12/20 03:03:32;;;;;;;0.50;0.50;;;5.70;99.90;;;;;;5129408;27;20046;-77
2023/12/20 03:05:58;;;;;;;0.60;0.60;;;5.80;99.90;;;;;;5127927;27;20264;-77
2023/12/20 03:08:24;;;;;;;0.60;0.60;;;5.70;99.90;;;;;;5130424;27;20031;-77
2023/12/20 03:10:50;;;;;;;0.47;0.47;;;5.70;99.90;;;;;;5129214;27;20047;-77
2023/12/20 03:13:16;;;;;;;0.50;0.50;;;5.70;99.90;;;;;;5109827;27;20050;-80
2023/12/20 03:15:41;;;;;;;0.40;0.40;;;5.70;99.90;;;;;;5128455;27;20049;-75
2023/12/20 03:18:07;;;;;;;0.47;0.47;;;5.70;99.90;;;;;;5128780;27;20074;-78
2023/12/20 03:20:35;;;;;;;2.65;1.92;;;5.80;99.90;;;;;;5128217;27;20039;-77
2023/12/20 03:23:01;;;;;;;0.57;0.57;;;5.90;99.90;;;;;;5131069;27;20059;-79
2023/12/20 03:25:27;;;;;;;0.50;0.50;;;5.90;99.90;;;;;;5127081;28;20043;-78
2023/12/20 03:27:53;;;;;;;0.55;0.55;;;6.00;99.90;;;;;;5128733;27;20039;-75
2023/12/20 03:30:18;;;;;;;;;;;6.20;99.90;;;;;;5129654;27;20045;-76
2023/12/20 03:32:45;;;;;;;0.60;0.60;;;6.00;99.90;;;;;;5131653;27;20284;-78
2023/12/20 03:35:11;;;;;;;0.55;0.55;;;6.00;99.90;;;;;;5126977;28;20133;-79
2023/12/20 03:37:38;;;;;;;0.60;0.60;;;6.00;99.90;;;;;;5128916;27;20185;-77
2023/12/20 03:40:04;;;;;;;0.50;0.50;;;5.80;99.90;;;;;;5129287;27;20035;-78
2023/12/20 03:42:29;;;;;;;;;;;5.70;99.90;;;;;;5140200;27;20031;-76
2023/12/20 03:44:55;;;;;;;0.60;0.60;;;5.60;99.90;;;;;;5129669;27;19921;-76
2023/12/20 03:47:21;;;;;;;0.45;0.45;;;5.60;99.90;;;;;;5128849;27;20124;-82
2023/12/20 03:49:46;;;;;;;0.50;0.50;;;5.60;99.90;;;;;;5129243;27;20035;-77
2023/12/20 03:52:12;;;;;;;0.57;0.57;;;5.60;99.90;;;;;;5109280;28;20118;-75
2023/12/20 03:54:38;;;;;;;0.43;0.43;;;5.60;99.90;;;;;;5129854;27;20429;-79
2023/12/20 03:57:04;;;;;;;0.50;0.50;;;5.60;99.90;;;;;;5130414;27;20394;-75
2023/12/20 03:59:30;;;;;;;;;;;5.60;99.90;;;;;;5132981;27;20036;-77
2023/12/20 04:01:55;;;;;;;0.60;0.60;;;5.60;99.90;;;;;;5128516;27;19942;-78
2023/12/20 04:04:21;;;;;;;0.50;0.50;;;5.60;99.90;;;;;;5126749;27;20395;-78
2023/12/20 04:06:47;;;;;;;0.50;0.50;;;5.60;99.90;;;;;;5130121;27;20039;-77
2023/12/20 04:09:13;;;;;;;0.40;0.40;;;5.60;99.90;;;;;;5115140;27;20524;-77
2023/12/20 04:11:38;;;;;;;3.67;3.42;;;5.60;99.90;;;;;;5131971;27;20068;-79
2023/12/20 04:14:04;;;;;;;0.90;0.90;;;5.60;99.90;;;;;;5108770;27;20476;-79
2023/12/20 04:16:30;;;;;;;0.52;0.52;;;5.60;99.90;;;;;;5127415;28;20043;-78
2023/12/20 04:18:56;;;;;;;0.60;0.60;;;5.60;99.90;;;;;;5131460;27;20062;-76
2023/12/20 04:21:22;;;;;;;0.50;0.50;;;5.60;99.90;;;;;;5127272;27;20042;-76
2023/12/20 04:23:47;;;;;;;0.40;0.40;;;5.70;99.90;;;;;;5130436;27;20051;-74
2023/12/20 04:26:13;;;;;;;0.40;0.40;;;5.70;99.90;;;;;;5136522;27;20400;-77
2023/12/20 04:28:38;;;;;;;0.50;0.50;;;5.80;99.90;;;;;;5132258;27;20092;-77
2023/12/20 04:31:04;;;;;;;0.40;0.40;;;5.90;99.90;;;;;;5135324;27;20043;-78
2023/12/20 04:33:30;;;;;;;0.40;0.40;;;5.80;99.90;;;;;;5130345;27;20121;-74
2023/12/20 04:35:55;;;;;;;0.50;0.50;;;5.90;99.90;;;;;;5113947;27;20075;-76
2023/12/20 04:38:21;;;;;;;0.70;0.70;;;5.90;99.90;;;;;;5117981;27;20039;-79
2023/12/20 04:40:48;;;;;;;1.05;1.05;;;6.00;99.90;;;;;;5131879;27;20046;-77
2023/12/20 04:43:13;;;;;;;0.40;0.40;;;6.10;99.90;;;;;;5130960;27;20078;-76
2023/12/20 04:45:39;;;;;;;6.53;1.17;;;6.20;99.90;;;;;;5133950;27;20447;-77
2023/12/20 04:48:05;;;;;;;0.57;0.57;;;6.70;99.90;;;;;;5097150;27;20074;-78
2023/12/20 04:50:31;;;;;;;;;;;6.40;99.90;;;;;;5135001;27;20034;-79
2023/12/20 04:52:57;;;;;;;0.90;0.90;;;6.40;99.90;;;;;;5132466;27;20010;-76
2023/12/20 04:55:22;;;;;;;0.45;0.45;;;6.50;99.90;;;;;;5130765;27;20103;-75
2023/12/20 04:57:48;;;;;;;0.50;0.50;;;6.40;99.90;;;;;;5116302;27;20430;-76
2023/12/20 05:00:15;;;;;;;0.50;0.50;;;6.50;99.90;;;;;;5133432;27;20498;-78
2023/12/20 05:02:41;;;;;;;5.25;2.80;;;6.50;99.90;;;;;;5131635;27;20051;-77
2023/12/20 05:05:08;;;;;;;0.50;0.50;;;6.60;99.90;;;;;;5112815;27;20038;-78
2023/12/20 05:07:34;;;;;;;0.45;0.45;;;6.60;99.90;;;;;;5135957;27;20088;-76
2023/12/20 05:10:00;;;;;;;0.50;0.50;;;6.60;99.90;;;;;;5130449;27;20050;-82
2023/12/20 05:12:26;;;;;;;0.57;0.57;;;6.60;99.90;;;;;;5132423;27;20031;-76
2023/12/20 05:14:52;;;;;;;0.30;0.30;;;6.70;99.90;;;;;;5095819;27;20047;-76
2023/12/20 05:17:20;;;;;;;0.50;0.50;;;6.70;99.90;;;;;;5130213;27;20494;-76
2023/12/20 05:19:45;;;;;;;1.20;1.20;;;6.90;99.90;;;;;;5117396;27;20039;-79
2023/12/20 05:22:11;;;;;;;0.55;0.55;;;6.70;99.90;;;;;;5130336;27;20057;-79
2023/12/20 05:24:38;;;;;;;0.40;0.40;;;6.70;99.90;;;;;;5130322;27;20134;-77
2023/12/20 05:27:04;;;;;;;0.45;0.45;;;6.80;99.90;;;;;;5131792;27;20826;-77
2023/12/20 05:29:30;;;;;;;0.60;0.60;;;6.70;99.90;;;;;;5113294;27;20275;-77
2023/12/20 05:31:58;;;;;;;0.68;0.68;;;6.60;99.90;;;;;;5129729;27;20065;-77
2023/12/20 05:34:24;;;;;;;1.05;1.05;;;6.70;99.90;;;;;;5113385;27;20043;-80
2023/12/20 05:36:49;;;;;;;0.47;0.47;;;6.70;99.90;;;;;;5130876;27;20047;-79
2023/12/20 05:39:15;;;;;;;0.40;0.40;;;6.70;99.90;;;;;;5113709;27;20042;-79
2023/12/20 05:41:41;;;;;;;1.88;1.77;;;7.70;99.90;;;;;;5129747;27;20035;-77
2023/12/20 05:44:06;;;;;;;0.80;0.80;;;7.30;99.90;;;;;;5128823;27;20112;-76
2023/12/20 05:46:32;;;;;;;0.50;0.50;;;7.10;99.90;;;;;;5132351;27;20042;-76
2023/12/20 05:48:58;;;;;;;0.40;0.40;;;6.80;99.90;;;;;;5112251;27;20047;-77
2023/12/20 05:51:24;;;;;;;0.43;0.43;;;6.80;99.90;;;;;;5129898;27;20039;-79
2023/12/20 05:53:49;;;;;;;0.40;0.40;;;6.90;99.90;;;;;;5134147;27;20416;-81
2023/12/20 05:56:15;;;;;;;0.40;0.40;;;6.90;99.90;;;;;;5130335;27;20035;-76
2023/12/20 05:58:41;;;;;;;0.40;0.40;;;6.90;99.90;;;;;;5130272;27;20041;-77
2023/12/20 06:01:08;;;;;;;1.08;1.08;;;6.90;99.90;;;;;;5112139;27;20043;-75
2023/12/20 06:03:34;;;;;;;3.40;2.50;;;6.90;99.90;;;;;;5128338;27;20047;-77
2023/12/20 06:06:06;;;;;;;0.38;0.38;;;6.90;99.90;;;;;;5129465;27;20046;-77
2023/12/20 06:08:32;;;;;;;0.40;0.40;;;7.20;99.90;;;;;;5129232;27;20035;-77
2023/12/20 06:10:57;;;;;;;2.05;1.95;;;7.10;99.90;;;;;;5113973;27;20039;-78
2023/12/20 06:13:23;;;;;;;0.50;0.50;;;7.00;99.90;;;;;;5109816;27;20078;-75
2023/12/20 06:15:49;;;;;;;0.60;0.60;;;7.10;99.90;;;;;;5136253;27;20035;-79
2023/12/20 06:18:14;;;;;;;0.50;0.50;;;7.10;99.90;;;;;;5132215;27;20047;-79
2023/12/20 06:20:40;;;;;;;0.80;0.80;;;7.10;99.90;;;;;;5126983;27;20047;-79
2023/12/20 06:23:06;;;;;;;3.33;3.05;;;7.20;99.90;;;;;;5119632;27;20051;-76
2023/12/20 06:25:32;;;;;;;0.60;0.60;;;7.20;99.90;;;;;;5131097;27;20047;-76
2023/12/20 06:27:57;;;;;;;0.50;0.50;;;7.20;99.90;;;;;;5116568;27;20133;-78
2023/12/20 06:30:24;;;;;;;0.60;0.60;;;7.20;99.90;;;;;;5129950;27;20039;-79
2023/12/20 06:32:50;;;;;;;0.60;0.60;;;7.20;99.90;;;;;;5128659;27;20050;-78
2023/12/20 06:35:16;;;;;;;0.50;0.50;;;7.20;99.90;;;;;;5112635;27;20043;-76
2023/12/20 06:37:44;;;;;;;0.40;0.40;;;7.20;99.90;;;;;;5129291;27;20549;-80
2023/12/20 06:40:10;;;;;;;0.50;0.50;;;7.20;99.90;;;;;;5128327;27;20055;-78
2023/12/20 06:42:36;;;;;;;0.85;0.85;;;7.20;99.90;;;;;;5115258;27;20476;-78
2023/12/20 06:45:02;;;;;;;0.40;0.40;;;7.20;99.90;;;;;;5122057;27;20039;-78
2023/12/20 06:47:28;;;;;;;;;;;7.20;99.90;;;;;;5127361;27;20043;-79
2023/12/20 06:49:54;;;;;;;0.40;0.40;;;7.20;99.90;;;;;;5126884;27;20064;-77
2023/12/20 06:52:19;;;;;;;0.40;0.40;;;7.20;99.90;;;;;;5126539;27;20047;-77
2023/12/20 06:54:45;;;;;;;2.10;2.00;;;7.20;99.90;;;;;;5106643;27;20176;-77
2023/12/20 06:57:11;;;;;;;0.60;0.60;;;7.20;99.90;;;;;;5123699;27;20039;-79
2023/12/20 06:59:41;;;;;;;0.50;0.50;;;7.20;99.90;;;;;;5121365;27;20054;-80
2023/12/20 07:02:07;;;;;;;0.25;0.25;;;7.10;99.90;;;;;;5127411;27;20066;-78
2023/12/20 07:04:40;;;;;;;0.40;0.40;;;7.20;99.90;;;;;;5125108;27;20305;-82
2023/12/20 07:07:07;;;;;;;0.60;0.60;;;7.20;99.90;;;;;;5128732;27;20117;-78
2023/12/20 07:09:33;;;;;;;0.40;0.40;;;7.20;99.90;;;;;;5127256;27;20038;-79
2023/12/20 07:11:59;;;;;;;1.55;1.45;;;7.20;99.90;;;;;;5128087;27;20133;-77
2023/12/20 07:14:25;;;;;;;0.50;0.50;;;7.40;99.90;;;;;;5129503;27;20126;-77
2023/12/20 07:16:50;;;;;;;0.80;0.80;;;7.30;99.90;;;;;;5123994;27;20053;-79
2023/12/20 07:19:16;;;;;;;0.50;0.50;;;7.30;99.90;;;;;;5113102;27;20038;-77
2023/12/20 07:21:42;;;;;;;0.50;0.50;;;7.40;99.90;;;;;;5123560;27;20146;-77
2023/12/20 07:24:08;;;;;;;0.88;0.80;;;7.40;99.90;;;;;;5106943;27;20054;-76
2023/12/20 07:26:35;;;;;;;0.50;0.50;;;7.40;99.90;;;;;;5120963;27;20043;-78
2023/12/20 07:29:01;;;;;;;0.52;0.52;;;7.40;99.90;;;;;;5118281;27;20551;-78
2023/12/20 07:31:26;;;;;;;1.00;1.00;;;7.50;99.90;;;;;;5117956;27;20123;-79
2023/12/20 07:33:52;;;;;;;0.60;0.60;;;7.70;99.90;;;;;;5121491;27;20411;-76
2023/12/20 07:36:19;;;;;;;0.40;0.40;;;7.70;99.90;;;;;;5107288;27;20043;-76
2023/12/20 07:38:45;;;;;;;1.95;0.77;;;7.60;99.90;;;;;;5124892;27;20047;-77
2023/12/20 07:41:10;;;;;;;0.40;0.40;;;7.60;99.90;;;;;;5099390;27;20048;-80
2023/12/20 07:43:36;;;;;;;2.28;2.15;;;7.60;99.90;;;;;;5119832;27;20045;-78
2023/12/20 07:46:08;;;;;;;0.50;0.50;;;7.60;99.90;;;;;;5124695;27;20046;-78
2023/12/20 07:48:38;;;;;;;2.15;1.40;;;7.70;99.90;;;;;;5124216;27;20043;-81
2023/12/20 07:51:06;;;;;;;2.00;0.82;;;7.60;99.90;;;;;;5101665;27;21369;-81
2023/12/20 07:53:32;;;;;;;1.40;1.38;;;7.60;99.90;;;;;;5095309;27;20039;-81
2023/12/20 07:56:01;;;;;;;0.40;0.40;;;7.70;99.90;;;;;;5117833;27;20047;-78
2023/12/20 07:58:27;;;;;;;0.40;0.40;;;7.70;99.90;;;;;;5122186;27;20403;-79
2023/12/20 08:00:53;;;;;;;2.33;2.20;;;7.70;99.90;;;;;;5128900;27;20132;-77
2023/12/20 08:03:19;;;;;;;2.05;0.95;;;7.70;99.90;;;;;;5091164;27;20051;-78
2023/12/20 08:05:45;;;;;;;0.40;0.40;;;7.70;99.90;;;;;;5130802;27;20530;-79
2023/12/20 08:08:14;;;;;;;1.15;1.15;;;7.70;99.90;;;;;;5125193;27;20027;-76
2023/12/20 08:10:41;;;;;;;1.02;1.02;;;7.70;99.90;;;;;;5105108;27;20041;-79
2023/12/20 08:13:07;;;;;;;0.40;0.40;;;7.70;99.90;;;;;;5106202;27;20454;-80
2023/12/20 08:15:33;;;;;;;0.70;0.70;;;7.70;99.90;;;;;;5111740;27;20499;-78
2023/12/20 08:17:59;;;;;;;0.50;0.50;;;7.70;99.90;;;;;;5138676;27;20074;-80
2023/12/20 08:20:24;;;;;;;0.52;0.52;;;7.70;99.90;;;;;;5112232;27;20043;-77
2023/12/20 08:22:52;;;;;;;2.00;1.90;;;7.80;99.90;;;;;;5119822;27;20077;-82
2023/12/20 08:25:18;;;;;;;1.05;0.50;;;7.80;99.90;;;;;;5131673;27;20061;-79
2023/12/20 08:27:44;;;;;;;0.88;0.88;;;7.80;99.90;;;;;;5129954;27;20536;-79
2023/12/20 08:30:10;;;;;;;2.50;1.33;;;8.00;99.90;;;;;;5109580;27;20150;-82
2023/12/20 08:32:35;;;;;;;;;;;7.90;99.90;;;;;;5111928;27;20027;-77
2023/12/20 08:35:01;;;;;;;0.45;0.45;;;7.90;99.90;;;;;;5133820;27;20406;-77
2023/12/20 08:37:27;;;;;;;0.70;0.70;;;7.80;99.90;;;;;;5131029;27;20047;-79
2023/12/20 08:39:53;;;;;;;0.40;0.40;;;7.00;99.90;;;;;;5133130;27;20444;-80
2023/12/20 08:42:19;;;;;;;0.40;0.40;;;;;;;;;;5130051;27;20122;-79
2023/12/20 08:44:45;;;;;;;;;;;5.80;99.90;;;;;;5135559;27;20079;-80
2023/12/20 08:47:13;;;;;;;1.30;1.25;;;5.50;99.90;;;;;;5137864;27;19955;-79
2023/12/20 08:49:39;;;;;;;0.50;0.50;;;5.40;99.90;;;;;;5114352;27;20091;-79
2023/12/20 08:52:05;;;;;;;;;;;5.20;99.90;;;;;;5131959;27;20544;-79
2023/12/20 08:54:30;;;;;;;0.50;0.50;;;5.10;99.90;;;;;;5134071;27;19926;-82
2023/12/20 08:56:56;;;;;;;2.92;2.83;;;5.10;99.90;;;;;;5131171;27;20043;-77
2023/12/20 08:59:22;;;;;;;0.50;0.50;;;5.10;99.90;;;;;;5127078;27;20047;-79
2023/12/20 09:01:48;;;;;;;0.50;0.50;;;5.10;99.90;;;;;;5132076;27;20411;-83
2023/12/20 09:04:13;;;;;;;;;;;5.50;99.90;;;;;;5129647;27;20054;-77
2023/12/20 09:06:39;;;;;;;1.55;1.45;;;5.10;99.90;;;;;;5136792;27;19923;-79
2023/12/20 09:09:08;;;;;;;0.60;0.60;;;5.10;99.90;;;;;;5119506;27;20039;-83
2023/12/20 09:11:33;;;;;;;0.55;0.55;;;5.10;99.90;;;;;;5132289;27;20047;-81
2023/12/20 09:13:59;;;;;;;0.60;0.60;;;5.10;99.90;;;;;;5128680;27;20380;-84
2023/12/20 09:16:25;;;;;;;0.50;0.50;;;5.20;99.90;;;;;;5133279;27;20046;-81
2023/12/20 09:18:51;;;;;;;0.57;0.57;;;5.20;99.90;;;;;;5134583;27;20085;-80
2023/12/20 09:21:17;;;;;;;0.50;0.50;;;5.20;99.90;;;;;;5137834;27;20034;-80
2023/12/20 09:23:44;;;;;;;;;;;5.20;99.90;;;;;;5131436;27;20059;-80
2023/12/20 09:26:09;;;;;;;0.50;0.50;;;5.20;99.90;;;;;;5112601;27;19996;-82
2023/12/20 09:28:36;;;;;;;0.50;0.50;;;5.30;99.90;;;;;;5131100;27;20146;-82
2023/12/20 09:31:05;;;;;;;0.60;0.60;;;5.10;99.90;;;;;;5132410;27;20047;-81
2023/12/20 09:33:31;;;;;;;0.50;0.50;;;5.20;99.90;;;;;;5117853;27;20109;-81
2023/12/20 09:35:57;;;;;;;;;;;5.10;99.90;;;;;;5132464;27;20043;-79
2023/12/20 09:38:23;;;;;;;0.40;0.40;;;5.10;99.90;;;;;;5133182;27;20276;-79
2023/12/20 09:40:48;;;;;;;0.50;0.50;;;6.00;99.90;;;;;;5118574;27;20050;-80
2023/12/20 09:43:18;;;;;;;0.47;0.47;;;5.10;99.90;;;;;;5108549;27;20092;-78
2023/12/20 09:45:47;;;;;;;1.08;1.08;;;5.10;99.90;;;;;;5116412;27;20696;-77
2023/12/20 09:48:14;;;;;;;0.60;0.60;;;5.20;99.90;;;;;;5136744;27;20122;-79
2023/12/20 09:50:40;;;;;;;0.55;0.55;;;5.20;99.90;;;;;;5130781;27;20035;-77
2023/12/20 09:53:08;;;;;;;;;;;5.20;99.90;;;;;;5103867;27;20071;-77
2023/12/20 09:55:36;;;;;;;0.50;0.50;;;5.20;99.90;;;;;;5132575;27;20438;-80
2023/12/20 09:58:02;;;;;;;0.50;0.50;;;5.30;99.90;;;;;;5118242;27;20110;-75
2023/12/20 10:00:29;;;;;;;1.25;1.25;;;5.30;99.90;;;;;;5129848;27;20062;-80
2023/12/20 10:02:59;;;;;;;0.50;0.50;;;5.30;99.90;;;;;;5132967;27;20043;-78
2023/12/20 10:05:30;;;;;;;0.50;0.50;;;5.30;99.90;;;;;;5132946;27;20047;-77
2023/12/20 10:08:02;;;;;;;0.47;0.47;;;5.30;99.90;;;;;;5128659;27;20042;-79
2023/12/20 10:10:29;;;;;;;0.50;0.50;;;;;;;;;;5095460;27;20445;-76
2023/12/20 10:12:56;;;;;;;;;;;;;;;;;;5117093;27;20391;-80
2023/12/20 10:15:22;;;;;;;0.57;0.57;;;5.80;99.90;;;;;;5134199;27;19919;-81
2023/12/20 10:17:51;;;;;;;0.50;0.50;;;5.90;99.90;;;;;;5136042;27;20115;-77
2023/12/20 10:20:16;;;;;;;0.50;0.50;;;6.10;99.90;;;;;;5110425;27;20047;-81
2023/12/20 10:22:42;;;;;;;0.50;0.50;;;6.10;99.90;;;;;;5127114;27;20500;-77
2023/12/20 10:25:08;;;;;;;0.90;0.90;;;6.20;99.90;;;;;;5114227;27;20104;-77
2023/12/20 10:27:34;;;;;;;0.50;0.50;;;6.20;99.90;;;;;;5097318;27;20064;-73
2023/12/20 10:30:00;;;;;;;;;;;6.30;99.90;;;;;;5137150;27;20492;-76
2023/12/20 10:32:27;;;;;;;0.40;0.40;;;6.40;99.90;;;;;;5116116;27;20010;-82
2023/12/20 10:34:54;;;;;;;0.40;0.40;;;6.50;99.90;;;;;;5127365;27;20042;-78
2023/12/20 10:37:20;;;;;;;0.88;0.88;;;6.60;99.90;;;;;;5125903;27;20065;-79
2023/12/20 10:39:57;;;;;;;0.40;0.40;;;6.60;99.90;;;;;;5114176;27;20043;-78
2023/12/20 10:42:26;;;;;;;3.03;1.05;;;6.60;99.90;;;;;;5108145;27;20104;-75
2023/12/20 10:44:53;;;;;;;0.70;0.70;;;6.60;99.90;;;;;;5125205;27;20066;-78
2023/12/20 10:47:20;;;;;;;0.57;0.57;;;6.60;99.90;;;;;;5113468;27;20035;-79
2023/12/20 10:49:46;;;;;;;0.45;0.45;;;6.60;99.90;;;;;;5129482;27;20412;-76
2023/12/20 10:52:13;;;;;;;0.40;0.40;;;6.60;99.90;;;;;;5129932;27;20084;-77
2023/12/20 10:54:40;;;;;;;0.30;0.30;;;6.60;99.90;;;;;;5133964;27;20072;-79
2023/12/20 10:57:06;;;;;;;0.55;0.55;;;6.60;99.90;;;;;;5131868;27;20035;-78
2023/12/20 10:59:36;;;;;;;;;;;6.60;99.90;;;;;;5129187;27;20035;-79
2023/12/20 11:02:06;;;;;;;0.50;0.50;;;6.60;99.90;;;;;;5128387;27;20026;-76
2023/12/20 11:04:53;;;;;;;0.43;0.43;;;6.60;99.90;;;;;;5089975;27;20071;-78
2023/12/20 11:07:49;;;;;;;1.60;1.60;;;6.70;99.90;;;;;;5128357;27;20042;-72
2023/12/20 11:10:26;;;;;;;0.68;0.68;;;6.80;99.90;;;;;;5125185;27;20039;-75
2023/12/20 11:12:57;;;;;;;0.50;0.50;;;6.80;99.90;;;;;;5127880;27;20149;-77
2023/12/20 11:15:24;;;;;;;0.50;0.50;;;6.80;99.90;;;;;;5108619;28;20073;-77
2023/12/20 11:17:58;;;;;;;0.50;0.50;;;6.80;99.90;;;;;;5124305;27;20488;-75
2023/12/20 11:20:34;;;;;;;0.50;0.50;;;6.90;99.90;;;;;;5124849;27;20125;-78
2023/12/20 11:23:00;;;;;;;0.50;0.50;;;6.90;99.90;;;;;;5132138;27;20098;-77
2023/12/20 11:25:26;;;;;;;2.75;2.55;;;6.90;99.90;;;;;;5131237;27;20074;-80
2023/12/20 11:28:11;;;;;;;0.40;0.40;;;6.90;99.90;;;;;;5110114;27;20392;-79
2023/12/20 11:30:47;;;;;;;0.40;0.40;;;6.90;99.90;;;;;;5129312;27;20074;-78
2023/12/20 11:33:15;;;;;;;1.00;0.80;;;6.90;99.90;;;;;;5118357;27;20441;-79
2023/12/20 11:35:41;;;;;;;0.32;0.32;;;6.90;99.90;;;;;;5116471;27;20142;-79
2023/12/20 11:38:10;;;;;;;0.40;0.40;;;7.00;99.90;;;;;;5135460;27;20559;-78
2023/12/20 11:40:36;;;;;;;0.60;0.60;;;7.00;99.90;;;;;;5137915;27;20042;-80
2023/12/20 11:43:03;;;;;;;0.75;0.75;;;7.10;99.90;;;;;;5113560;27;20445;-76
2023/12/20 11:45:29;;;;;;;3.05;1.08;;;7.10;99.90;;;;;;5131578;27;20100;-76
2023/12/20 11:47:57;;;;;;;0.50;0.50;;;7.10;99.90;;;;;;5115331;27;20466;-77
2023/12/20 11:50:23;;;;;;;0.40;0.40;;;7.20;99.90;;;;;;5128664;27;20053;-77
2023/12/20 11:52:51;;;;;;;0.30;0.30;;;7.20;99.90;;;;;;5132261;27;20051;-84
2023/12/20 11:55:17;;;;;;;0.40;0.40;;;7.20;99.90;;;;;;5128633;27;20110;-81
2023/12/20 11:57:44;;;;;;;0.30;0.30;;;7.20;99.90;;;;;;5134039;27;20440;-76
2023/12/20 12:00:10;;;;;;;1.23;1.13;;;7.20;99.90;;;;;;5129924;27;20110;-76
2023/12/20 12:02:36;;;;;;;0.40;0.40;;;7.20;99.90;;;;;;5127364;27;20031;-80
2023/12/20 12:05:05;;;;;;;0.47;0.47;;;7.20;99.90;;;;;;5101419;27;20050;-79
2023/12/20 12:07:31;;;;;;;0.73;0.73;;;7.20;99.90;;;;;;5116834;27;20050;-77
2023/12/20 12:09:58;;;;;;;1.77;1.67;;;7.20;99.90;;;;;;5130806;27;20078;-83
2023/12/20 12:12:25;;;;;;;;;;;7.10;99.90;;;;;;5126659;27;20361;-80
2023/12/20 12:14:51;;;;;;;0.50;0.50;;;7.10;99.90;;;;;;5128056;27;19925;-75
2023/12/20 12:17:16;;;;;;;0.85;0.85;;;7.10;99.90;;;;;;5110961;27;20117;-80
2023/12/20 12:19:43;;;;;;;0.30;0.30;;;7.10;99.90;;;;;;5129894;27;20101;-83
2023/12/20 12:22:13;;;;;;;0.40;0.40;;;7.10;99.90;;;;;;5132398;27;20124;-79
2023/12/20 12:24:44;;;;;;;0.40;0.40;;;7.10;99.90;;;;;;5110636;27;20134;-80
2023/12/20 12:27:10;;;;;;;1.08;1.05;;;7.10;99.90;;;;;;5134882;27;20041;-82
2023/12/20 12:29:36;;;;;;;0.55;0.55;;;7.10;99.90;;;;;;5106506;27;21197;-77
2023/12/20 12:32:07;;;;;;;0.55;0.55;;;7.10;99.90;;;;;;5124840;27;20034;-78
2023/12/20 12:34:36;;;;;;;0.43;0.43;;;7.10;99.90;;;;;;5129142;27;20039;-78
2023/12/20 12:37:05;;;;;;;0.45;0.45;;;7.10;99.90;;;;;;5124097;27;20050;-77
2023/12/20 12:39:31;;;;;;;0.40;0.40;;;7.10;99.90;;;;;;5124797;27;20038;-78
2023/12/20 12:41:57;;;;;;;0.52;0.52;;;7.10;99.90;;;;;;5128128;27;20527;-77
2023/12/20 12:44:26;;;;;;;;;;;7.10;99.90;;;;;;5124459;27;20054;-78
2023/12/20 12:46:53;;;;;;;0.30;0.30;;;7.20;99.90;;;;;;5125804;27;19916;-79
2023/12/20 12:49:22;;;;;;;1.73;1.65;;;7.20;99.90;;;;;;5089960;27;20065;-79
2023/12/20 12:51:48;;;;;;;0.40;0.40;;;7.30;99.90;;;;;;5132748;27;20038;-77
2023/12/20 12:54:16;;;;;;;0.40;0.40;;;7.40;99.90;;;;;;5129640;27;20184;-82
2023/12/20 12:56:42;;;;;;;0.32;0.32;;;7.40;99.90;;;;;;5117610;27;20042;-79
2023/12/20 12:59:08;;;;;;;;;;;7.40;99.90;;;;;;5110436;27;20131;-81